Meridian Naval Air Station
KNMM : now visible

Airfield :











YOU CAN JOIN US ON...

 
LOGIN :

Register | Disclaimer

   EN    FR    IT 

 









Legend :    VFR   Marginal VFR   IFR   Intensive IFR   Very Intensive IFR
Visi :
Ceiling :
>= 8 km
>= 3000ft
5 to 8 km
1000 to 3000 ft
1500m to 5 km
500 to 1000 ft
800 to 1500m
200 to 500 ft
< 800m
< 200 ft
Symbols :   Thunderstorms  Fog  Heavy snow  Heavy precipitations  Wind > 20 kt






- Airport Elevation : 316 ft


KNMM - Meridian Naval Air Station

CURRENT METAR :
  • 230924Z AUTO 24005KT 10SM TS FEW055 23/19 A2999 RMK AO2 TSB18 T02330189 $

EXPIRED METARs :
  • 230856Z AUTO 23004KT 10SM BKN050 23/20 A2999 RMK AO2 SLP163 T02330200 55010 $
  • 230756Z AUTO 30006KT 10SM FEW055 23/19 A2998 RMK AO2 SLP160 T02330194 $
  • 230656Z AUTO 24003KT 10SM CLR 24/19 A3001 RMK AO2 SLP169 T02390194 $
  • 230556Z AUTO 24006KT 10SM CLR 24/19 A3003 RMK AO2 SLP174 T02440194 10278 20244 403110183 51021 $
  • 230456Z 00000KT 10SM OVC180 26/19 A3000 RMK AO2 SLP167 T02560189 $

TAF TAF KNMM
Valid from the 23 at 07:00 until the 24 at 07:00 UTC


2307/2407 VRB06KT VCTS FEW010 SCT025CB BKN180 QNH2989INS
TEMPO 2307/2312 VRB20G30KT 3200 TSRA SCT015CB BKN030
FM231200 VRB06KT 9999 VCSH SCT020 BKN150 QNH2999INS
FM232000 16008KT 9999 SCT020 SCT060 BKN250 QNH2982INS AUTOMATED SENSOR METWATCH 2307 TIL 2311 TX30/2321Z TN20/2312Z FN00273
KZME FIR / North America



MET'MAP, your aeronautical weather chart ! - Copyright ORBIFLY December 2007 - Disclaimer

ORBIFLY MET'MAP TEAM :

Programming & Development : Alexandra Zaïnal
Original concept : Baudouin d'Aumeries
Technical & hardware support : Manuel Goepfert
Assistance : Marc-Olivier Méhu




SOURCES & CREDITS :

   NOAA       Earth
Advisory